sensor_id;sensor_type;location;lat;lon;timestamp;temperature;humidity
11617;DHT22;5864;52.998;9.068;2023-11-19T09:14:51;13.40;99.90
11617;DHT22;5864;52.998;9.068;2023-11-19T09:17:37;13.90;99.90
11617;DHT22;5864;52.998;9.068;2023-11-19T09:20:22;14.20;99.90
11617;DHT22;5864;52.998;9.068;2023-11-19T09:23:08;14.40;99.90
11617;DHT22;5864;52.998;9.068;2023-11-19T09:25:53;14.60;99.90
11617;DHT22;5864;52.998;9.068;2023-11-19T09:28:39;14.50;78.40
11617;DHT22;5864;52.998;9.068;2023-11-19T09:31:26;14.60;99.90
11617;DHT22;5864;52.998;9.068;2023-11-19T09:34:12;15.20;82.10
11617;DHT22;5864;52.998;9.068;2023-11-19T09:36:58;15.20;86.90
11617;DHT22;5864;52.998;9.068;2023-11-19T09:39:43;15.00;61.40
11617;DHT22;5864;52.998;9.068;2023-11-19T09:42:29;14.50;99.90
11617;DHT22;5864;52.998;9.068;2023-11-19T09:45:17;13.80;99.90
11617;DHT22;5864;52.998;9.068;2023-11-19T09:48:08;13.30;99.90
11617;DHT22;5864;52.998;9.068;2023-11-19T09:50:54;12.90;99.90
11617;DHT22;5864;52.998;9.068;2023-11-19T09:53:39;12.60;99.90
11617;DHT22;5864;52.998;9.068;2023-11-19T09:56:27;12.40;99.90
11617;DHT22;5864;52.998;9.068;2023-11-19T09:59:14;12.20;99.90
11617;DHT22;5864;52.998;9.068;2023-11-19T10:01:59;12.20;99.90
11617;DHT22;5864;52.998;9.068;2023-11-19T10:04:46;12.10;99.90
11617;DHT22;5864;52.998;9.068;2023-11-19T10:07:33;12.10;99.90
11617;DHT22;5864;52.998;9.068;2023-11-19T10:10:19;12.00;99.90
11617;DHT22;5864;52.998;9.068;2023-11-19T10:13:05;12.00;99.90
11617;DHT22;5864;52.998;9.068;2023-11-19T10:15:52;12.00;99.90
11617;DHT22;5864;52.998;9.068;2023-11-19T10:18:38;11.80;99.90
11617;DHT22;5864;52.998;9.068;2023-11-19T10:21:29;11.80;99.90
11617;DHT22;5864;52.998;9.068;2023-11-19T10:24:31;11.70;99.90
11617;DHT22;5864;52.998;9.068;2023-11-19T10:27:17;11.70;99.90
11617;DHT22;5864;52.998;9.068;2023-11-19T10:30:03;11.70;99.90
11617;DHT22;5864;52.998;9.068;2023-11-19T10:33:03;11.80;99.90
11617;DHT22;5864;52.998;9.068;2023-11-19T10:35:53;11.80;99.90
11617;DHT22;5864;52.998;9.068;2023-11-19T10:38:51;12.00;99.90
11617;DHT22;5864;52.998;9.068;2023-11-19T10:41:37;12.00;99.90
11617;DHT22;5864;52.998;9.068;2023-11-19T10:44:32;12.00;99.90
11617;DHT22;5864;52.998;9.068;2023-11-19T10:47:20;12.00;99.90
11617;DHT22;5864;52.998;9.068;2023-11-19T10:50:08;12.00;99.90
11617;DHT22;5864;52.998;9.068;2023-11-19T10:52:56;11.90;99.90
11617;DHT22;5864;52.998;9.068;2023-11-19T10:55:47;12.00;99.90
11617;DHT22;5864;52.998;9.068;2023-11-19T10:58:33;11.90;99.90
11617;DHT22;5864;52.998;9.068;2023-11-19T11:01:24;11.90;99.90
11617;DHT22;5864;52.998;9.068;2023-11-19T11:04:14;11.90;99.90
11617;DHT22;5864;52.998;9.068;2023-11-19T11:07:00;11.80;99.90
11617;DHT22;5864;52.998;9.068;2023-11-19T11:09:47;11.70;99.90
11617;DHT22;5864;52.998;9.068;2023-11-19T11:12:36;11.70;99.90
11617;DHT22;5864;52.998;9.068;2023-11-19T11:15:26;11.70;99.90
11617;DHT22;5864;52.998;9.068;2023-11-19T11:18:13;11.60;99.90
11617;DHT22;5864;52.998;9.068;2023-11-19T11:21:00;11.60;99.90
11617;DHT22;5864;52.998;9.068;2023-11-19T11:24:10;11.60;99.90
11617;DHT22;5864;52.998;9.068;2023-11-19T11:27:38;11.70;99.90
11617;DHT22;5864;52.998;9.068;2023-11-19T11:30:35;11.80;99.90
11617;DHT22;5864;52.998;9.068;2023-11-19T11:33:39;12.00;99.90
11617;DHT22;5864;52.998;9.068;2023-11-19T11:36:27;12.20;99.90
11617;DHT22;5864;52.998;9.068;2023-11-19T11:39:14;12.30;99.90
11617;DHT22;5864;52.998;9.068;2023-11-19T11:42:30;12.30;99.90
11617;DHT22;5864;52.998;9.068;2023-11-19T11:45:18;12.40;99.90
11617;DHT22;5864;52.998;9.068;2023-11-19T11:48:11;12.50;99.90
11617;DHT22;5864;52.998;9.068;2023-11-19T11:50:58;12.40;99.90
11617;DHT22;5864;52.998;9.068;2023-11-19T11:53:47;12.50;99.90
11617;DHT22;5864;52.998;9.068;2023-11-19T11:56:33;12.40;99.90
11617;DHT22;5864;52.998;9.068;2023-11-19T11:59:19;12.50;99.90
11617;DHT22;5864;52.998;9.068;2023-11-19T12:02:08;12.50;99.90
11617;DHT22;5864;52.998;9.068;2023-11-19T12:04:54;12.50;99.90
11617;DHT22;5864;52.998;9.068;2023-11-19T12:07:40;12.40;99.90
11617;DHT22;5864;52.998;9.068;2023-11-19T12:10:26;12.40;99.90
11617;DHT22;5864;52.998;9.068;2023-11-19T12:13:11;12.40;99.90
11617;DHT22;5864;52.998;9.068;2023-11-19T12:16:10;12.40;99.90
11617;DHT22;5864;52.998;9.068;2023-11-19T12:19:02;12.40;99.90
11617;DHT22;5864;52.998;9.068;2023-11-19T12:21:49;12.30;99.90
11617;DHT22;5864;52.998;9.068;2023-11-19T12:24:35;12.40;99.90
11617;DHT22;5864;52.998;9.068;2023-11-19T12:27:22;13.30;99.90
11617;DHT22;5864;52.998;9.068;2023-11-19T12:30:08;12.20;99.90
11617;DHT22;5864;52.998;9.068;2023-11-19T12:32:54;12.20;99.90
11617;DHT22;5864;52.998;9.068;2023-11-19T12:35:42;12.20;99.90
11617;DHT22;5864;52.998;9.068;2023-11-19T12:38:28;12.10;99.90
11617;DHT22;5864;52.998;9.068;2023-11-19T12:41:14;12.00;99.90
11617;DHT22;5864;52.998;9.068;2023-11-19T12:44:11;11.90;99.90
11617;DHT22;5864;52.998;9.068;2023-11-19T12:47:01;11.90;99.90
11617;DHT22;5864;52.998;9.068;2023-11-19T12:49:55;11.80;99.90
11617;DHT22;5864;52.998;9.068;2023-11-19T12:52:43;11.80;99.90
11617;DHT22;5864;52.998;9.068;2023-11-19T12:55:29;11.80;99.90
11617;DHT22;5864;52.998;9.068;2023-11-19T12:58:31;11.60;99.90
11617;DHT22;5864;52.998;9.068;2023-11-19T13:01:17;11.50;99.90
11617;DHT22;5864;52.998;9.068;2023-11-19T13:04:15;11.40;99.90
11617;DHT22;5864;52.998;9.068;2023-11-19T13:07:02;11.40;99.90
11617;DHT22;5864;52.998;9.068;2023-11-19T13:09:50;11.30;99.90
11617;DHT22;5864;52.998;9.068;2023-11-19T13:12:41;11.10;99.90
11617;DHT22;5864;52.998;9.068;2023-11-19T13:15:27;10.80;99.90
11617;DHT22;5864;52.998;9.068;2023-11-19T13:18:13;10.70;99.90
11617;DHT22;5864;52.998;9.068;2023-11-19T13:20:59;10.60;99.90
11617;DHT22;5864;52.998;9.068;2023-11-19T13:23:44;10.50;99.90
11617;DHT22;5864;52.998;9.068;2023-11-19T13:26:32;10.50;99.90
11617;DHT22;5864;52.998;9.068;2023-11-19T13:29:19;10.40;99.90
11617;DHT22;5864;52.998;9.068;2023-11-19T13:32:05;10.30;99.90
11617;DHT22;5864;52.998;9.068;2023-11-19T13:34:50;10.30;99.90
11617;DHT22;5864;52.998;9.068;2023-11-19T13:37:37;10.30;99.90
11617;DHT22;5864;52.998;9.068;2023-11-19T13:40:22;10.40;99.90
11617;DHT22;5864;52.998;9.068;2023-11-19T13:43:10;10.40;99.90
11617;DHT22;5864;52.998;9.068;2023-11-19T13:45:57;10.50;99.90
11617;DHT22;5864;52.998;9.068;2023-11-19T13:48:42;10.40;99.90
11617;DHT22;5864;52.998;9.068;2023-11-19T13:51:28;10.50;99.90
11617;DHT22;5864;52.998;9.068;2023-11-19T13:54:14;10.40;99.90
11617;DHT22;5864;52.998;9.068;2023-11-19T13:57:00;10.30;99.90
11617;DHT22;5864;52.998;9.068;2023-11-19T13:59:49;10.40;99.90
11617;DHT22;5864;52.998;9.068;2023-11-19T14:02:35;10.30;99.90
11617;DHT22;5864;52.998;9.068;2023-11-19T14:05:21;10.60;99.90
11617;DHT22;5864;52.998;9.068;2023-11-19T14:08:07;10.30;99.90
11617;DHT22;5864;52.998;9.068;2023-11-19T14:10:55;11.20;99.90
11617;DHT22;5864;52.998;9.068;2023-11-19T14:13:40;10.30;99.90
11617;DHT22;5864;52.998;9.068;2023-11-19T14:16:27;10.30;99.90
11617;DHT22;5864;52.998;9.068;2023-11-19T14:19:13;10.40;99.90
11617;DHT22;5864;52.998;9.068;2023-11-19T14:21:59;10.40;99.90
11617;DHT22;5864;52.998;9.068;2023-11-19T14:24:45;10.40;99.90
11617;DHT22;5864;52.998;9.068;2023-11-19T14:27:30;10.60;99.90
11617;DHT22;5864;52.998;9.068;2023-11-19T14:30:17;10.60;99.90
11617;DHT22;5864;52.998;9.068;2023-11-19T14:33:04;10.60;99.90
11617;DHT22;5864;52.998;9.068;2023-11-19T14:35:50;10.70;99.90
11617;DHT22;5864;52.998;9.068;2023-11-19T14:38:36;10.60;99.90
11617;DHT22;5864;52.998;9.068;2023-11-19T14:41:21;10.60;99.90
11617;DHT22;5864;52.998;9.068;2023-11-19T14:44:07;10.60;99.90
11617;DHT22;5864;52.998;9.068;2023-11-19T14:46:53;11.70;99.90
11617;DHT22;5864;52.998;9.068;2023-11-19T14:49:40;10.50;99.90
11617;DHT22;5864;52.998;9.068;2023-11-19T14:52:26;10.50;99.90
11617;DHT22;5864;52.998;9.068;2023-11-19T14:55:12;10.50;99.90
11617;DHT22;5864;52.998;9.068;2023-11-19T14:57:57;10.40;99.90
11617;DHT22;5864;52.998;9.068;2023-11-19T15:00:44;10.40;99.90
11617;DHT22;5864;52.998;9.068;2023-11-19T15:03:30;10.40;99.90
11617;DHT22;5864;52.998;9.068;2023-11-19T15:06:18;10.40;99.90
11617;DHT22;5864;52.998;9.068;2023-11-19T15:09:08;10.20;99.90
11617;DHT22;5864;52.998;9.068;2023-11-19T15:11:54;10.30;99.90
11617;DHT22;5864;52.998;9.068;2023-11-19T15:14:40;10.30;99.90
11617;DHT22;5864;52.998;9.068;2023-11-19T15:17:25;10.20;99.90
11617;DHT22;5864;52.998;9.068;2023-11-19T15:20:11;10.20;99.90
11617;DHT22;5864;52.998;9.068;2023-11-19T15:23:01;10.20;99.90
11617;DHT22;5864;52.998;9.068;2023-11-19T15:25:46;10.20;99.90
11617;DHT22;5864;52.998;9.068;2023-11-19T15:28:32;10.20;99.90
11617;DHT22;5864;52.998;9.068;2023-11-19T15:31:18;10.20;99.90
11617;DHT22;5864;52.998;9.068;2023-11-19T15:34:03;10.20;99.90
11617;DHT22;5864;52.998;9.068;2023-11-19T15:36:49;10.90;99.90
11617;DHT22;5864;52.998;9.068;2023-11-19T15:39:36;10.30;99.90
11617;DHT22;5864;52.998;9.068;2023-11-19T15:42:22;10.30;99.90
11617;DHT22;5864;52.998;9.068;2023-11-19T15:45:08;10.30;99.90
11617;DHT22;5864;52.998;9.068;2023-11-19T15:47:56;10.30;99.90
11617;DHT22;5864;52.998;9.068;2023-11-19T15:50:41;10.30;99.90
11617;DHT22;5864;52.998;9.068;2023-11-19T15:53:28;10.20;99.90
11617;DHT22;5864;52.998;9.068;2023-11-19T15:56:16;10.20;99.90
11617;DHT22;5864;52.998;9.068;2023-11-19T15:59:01;10.20;99.90
11617;DHT22;5864;52.998;9.068;2023-11-19T16:01:49;10.30;99.90
11617;DHT22;5864;52.998;9.068;2023-11-19T16:04:34;10.20;99.90
11617;DHT22;5864;52.998;9.068;2023-11-19T16:07:20;10.20;99.90
11617;DHT22;5864;52.998;9.068;2023-11-19T16:10:06;10.50;99.90
11617;DHT22;5864;52.998;9.068;2023-11-19T16:12:55;10.20;99.90
11617;DHT22;5864;52.998;9.068;2023-11-19T16:15:41;10.30;99.90
11617;DHT22;5864;52.998;9.068;2023-11-19T16:18:26;10.20;99.90
11617;DHT22;5864;52.998;9.068;2023-11-19T16:21:13;10.20;99.90
11617;DHT22;5864;52.998;9.068;2023-11-19T16:23:59;10.20;99.90
11617;DHT22;5864;52.998;9.068;2023-11-19T16:26:46;11.60;99.90
11617;DHT22;5864;52.998;9.068;2023-11-19T16:29:34;10.20;99.90
11617;DHT22;5864;52.998;9.068;2023-11-19T16:32:20;10.20;99.90
11617;DHT22;5864;52.998;9.068;2023-11-19T16:35:06;10.20;99.90
11617;DHT22;5864;52.998;9.068;2023-11-19T16:37:55;10.20;99.90
11617;DHT22;5864;52.998;9.068;2023-11-19T16:40:40;10.20;99.90
11617;DHT22;5864;52.998;9.068;2023-11-19T16:43:26;10.20;99.90
11617;DHT22;5864;52.998;9.068;2023-11-19T16:46:13;10.70;99.90
11617;DHT22;5864;52.998;9.068;2023-11-19T16:48:59;10.90;99.90
11617;DHT22;5864;52.998;9.068;2023-11-19T16:51:45;10.40;99.90
11617;DHT22;5864;52.998;9.068;2023-11-19T16:54:31;10.30;99.90
11617;DHT22;5864;52.998;9.068;2023-11-19T16:57:17;10.30;99.90
11617;DHT22;5864;52.998;9.068;2023-11-19T17:00:06;10.30;99.90
11617;DHT22;5864;52.998;9.068;2023-11-19T17:02:53;10.30;99.90
11617;DHT22;5864;52.998;9.068;2023-11-19T17:05:39;10.30;99.90
11617;DHT22;5864;52.998;9.068;2023-11-19T17:08:25;10.30;99.90
11617;DHT22;5864;52.998;9.068;2023-11-19T17:11:11;10.30;99.90
11617;DHT22;5864;52.998;9.068;2023-11-19T17:13:56;10.30;99.90
11617;DHT22;5864;52.998;9.068;2023-11-19T17:16:42;10.30;99.90
11617;DHT22;5864;52.998;9.068;2023-11-19T17:19:29;10.30;99.90
11617;DHT22;5864;52.998;9.068;2023-11-19T17:22:15;10.30;99.90
11617;DHT22;5864;52.998;9.068;2023-11-19T17:25:01;10.50;99.90
11617;DHT22;5864;52.998;9.068;2023-11-19T17:27:47;10.30;99.90
11617;DHT22;5864;52.998;9.068;2023-11-19T17:30:32;10.30;99.90
11617;DHT22;5864;52.998;9.068;2023-11-19T17:33:18;10.40;99.90
11617;DHT22;5864;52.998;9.068;2023-11-19T17:36:06;10.30;99.90
11617;DHT22;5864;52.998;9.068;2023-11-19T17:38:52;10.30;99.90
11617;DHT22;5864;52.998;9.068;2023-11-19T17:41:37;10.30;99.90
11617;DHT22;5864;52.998;9.068;2023-11-19T17:44:24;10.20;99.90
11617;DHT22;5864;52.998;9.068;2023-11-19T17:47:10;10.30;99.90
11617;DHT22;5864;52.998;9.068;2023-11-19T17:49:57;10.30;99.90
11617;DHT22;5864;52.998;9.068;2023-11-19T17:52:44;10.40;99.90
11617;DHT22;5864;52.998;9.068;2023-11-19T17:55:30;10.40;99.90
11617;DHT22;5864;52.998;9.068;2023-11-19T17:58:16;10.90;99.90
11617;DHT22;5864;52.998;9.068;2023-11-19T18:01:03;11.00;99.90
11617;DHT22;5864;52.998;9.068;2023-11-19T18:03:49;10.40;99.90
11617;DHT22;5864;52.998;9.068;2023-11-19T18:06:34;10.40;99.90
11617;DHT22;5864;52.998;9.068;2023-11-19T18:09:23;10.30;99.90
11617;DHT22;5864;52.998;9.068;2023-11-19T18:12:11;10.40;99.90
11617;DHT22;5864;52.998;9.068;2023-11-19T18:14:56;10.70;99.90
11617;DHT22;5864;52.998;9.068;2023-11-19T18:17:43;10.30;99.90
11617;DHT22;5864;52.998;9.068;2023-11-19T18:20:28;10.40;99.90
11617;DHT22;5864;52.998;9.068;2023-11-19T18:23:14;10.40;99.90
11617;DHT22;5864;52.998;9.068;2023-11-19T18:26:01;10.40;99.90
11617;DHT22;5864;52.998;9.068;2023-11-19T18:28:47;10.40;99.90
11617;DHT22;5864;52.998;9.068;2023-11-19T18:31:32;10.40;99.90
11617;DHT22;5864;52.998;9.068;2023-11-19T18:34:18;10.40;99.90
11617;DHT22;5864;52.998;9.068;2023-11-19T18:37:04;10.50;99.90
11617;DHT22;5864;52.998;9.068;2023-11-19T18:39:49;10.50;99.90
11617;DHT22;5864;52.998;9.068;2023-11-19T18:42:36;10.50;99.90
11617;DHT22;5864;52.998;9.068;2023-11-19T18:45:22;10.40;99.90
11617;DHT22;5864;52.998;9.068;2023-11-19T18:48:07;10.50;99.90
11617;DHT22;5864;52.998;9.068;2023-11-19T18:50:53;10.50;99.90
11617;DHT22;5864;52.998;9.068;2023-11-19T18:53:38;12.30;99.90
11617;DHT22;5864;52.998;9.068;2023-11-19T18:56:24;10.50;99.90
11617;DHT22;5864;52.998;9.068;2023-11-19T18:59:12;10.50;99.90
11617;DHT22;5864;52.998;9.068;2023-11-19T19:02:00;10.50;99.90
11617;DHT22;5864;52.998;9.068;2023-11-19T19:04:47;10.40;99.90
11617;DHT22;5864;52.998;9.068;2023-11-19T19:07:33;10.50;99.90
11617;DHT22;5864;52.998;9.068;2023-11-19T19:10:19;10.50;99.90
11617;DHT22;5864;52.998;9.068;2023-11-19T19:13:04;10.60;99.90
11617;DHT22;5864;52.998;9.068;2023-11-19T19:15:54;10.60;99.90
11617;DHT22;5864;52.998;9.068;2023-11-19T19:18:39;10.60;99.90
11617;DHT22;5864;52.998;9.068;2023-11-19T19:21:25;10.60;99.90
11617;DHT22;5864;52.998;9.068;2023-11-19T19:24:11;11.30;99.90
11617;DHT22;5864;52.998;9.068;2023-11-19T19:26:58;10.80;99.90
11617;DHT22;5864;52.998;9.068;2023-11-19T19:29:44;10.60;99.90
11617;DHT22;5864;52.998;9.068;2023-11-19T19:32:31;10.60;99.90
11617;DHT22;5864;52.998;9.068;2023-11-19T19:35:17;10.50;99.90
11617;DHT22;5864;52.998;9.068;2023-11-19T19:38:03;10.50;99.90
11617;DHT22;5864;52.998;9.068;2023-11-19T19:40:48;10.50;99.90
11617;DHT22;5864;52.998;9.068;2023-11-19T19:43:35;10.50;99.90
11617;DHT22;5864;52.998;9.068;2023-11-19T19:46:21;10.60;99.90
11617;DHT22;5864;52.998;9.068;2023-11-19T19:49:09;10.50;99.90
11617;DHT22;5864;52.998;9.068;2023-11-19T19:51:55;10.50;99.90
11617;DHT22;5864;52.998;9.068;2023-11-19T19:54:41;10.50;99.90
11617;DHT22;5864;52.998;9.068;2023-11-19T19:57:26;10.50;99.90
11617;DHT22;5864;52.998;9.068;2023-11-19T20:00:14;10.50;99.90
11617;DHT22;5864;52.998;9.068;2023-11-19T20:03:00;10.60;99.90
11617;DHT22;5864;52.998;9.068;2023-11-19T20:05:46;10.60;99.90
11617;DHT22;5864;52.998;9.068;2023-11-19T20:08:32;10.50;99.90
11617;DHT22;5864;52.998;9.068;2023-11-19T20:11:17;10.50;99.90
11617;DHT22;5864;52.998;9.068;2023-11-19T20:14:03;11.00;99.90
11617;DHT22;5864;52.998;9.068;2023-11-19T20:16:49;10.50;99.90
11617;DHT22;5864;52.998;9.068;2023-11-19T20:19:35;10.50;99.90
11617;DHT22;5864;52.998;9.068;2023-11-19T20:22:22;10.50;99.90
11617;DHT22;5864;52.998;9.068;2023-11-19T20:25:08;10.50;99.90
11617;DHT22;5864;52.998;9.068;2023-11-19T20:27:53;10.50;99.90
11617;DHT22;5864;52.998;9.068;2023-11-19T20:30:40;10.50;99.90
11617;DHT22;5864;52.998;9.068;2023-11-19T20:33:27;11.40;99.90
11617;DHT22;5864;52.998;9.068;2023-11-19T20:36:12;10.50;99.90
11617;DHT22;5864;52.998;9.068;2023-11-19T20:39:00;10.50;99.90
11617;DHT22;5864;52.998;9.068;2023-11-19T20:41:46;10.60;99.90
11617;DHT22;5864;52.998;9.068;2023-11-19T20:44:32;10.50;99.90
11617;DHT22;5864;52.998;9.068;2023-11-19T20:47:18;10.50;99.90
11617;DHT22;5864;52.998;9.068;2023-11-19T20:50:04;11.10;99.90
11617;DHT22;5864;52.998;9.068;2023-11-19T20:52:51;10.40;99.90
11617;DHT22;5864;52.998;9.068;2023-11-19T20:55:39;10.50;99.90
11617;DHT22;5864;52.998;9.068;2023-11-19T20:58:28;10.50;99.90
11617;DHT22;5864;52.998;9.068;2023-11-19T21:01:14;10.40;99.90
11617;DHT22;5864;52.998;9.068;2023-11-19T21:03:59;10.90;99.90
11617;DHT22;5864;52.998;9.068;2023-11-19T21:06:46;10.50;99.90
11617;DHT22;5864;52.998;9.068;2023-11-19T21:09:31;10.40;99.90
11617;DHT22;5864;52.998;9.068;2023-11-19T21:12:18;10.40;99.90
11617;DHT22;5864;52.998;9.068;2023-11-19T21:15:04;10.40;99.90
11617;DHT22;5864;52.998;9.068;2023-11-19T21:17:50;10.50;99.90
11617;DHT22;5864;52.998;9.068;2023-11-19T21:20:37;10.40;99.90
11617;DHT22;5864;52.998;9.068;2023-11-19T21:23:23;10.40;99.90
11617;DHT22;5864;52.998;9.068;2023-11-19T21:26:09;10.40;99.90
11617;DHT22;5864;52.998;9.068;2023-11-19T21:28:56;10.40;99.90
11617;DHT22;5864;52.998;9.068;2023-11-19T21:31:42;10.40;99.90
11617;DHT22;5864;52.998;9.068;2023-11-19T21:34:27;10.40;99.90
11617;DHT22;5864;52.998;9.068;2023-11-19T21:37:14;10.40;99.90
11617;DHT22;5864;52.998;9.068;2023-11-19T21:39:59;10.40;99.90
11617;DHT22;5864;52.998;9.068;2023-11-19T21:42:46;10.40;99.90
11617;DHT22;5864;52.998;9.068;2023-11-19T21:45:33;10.40;99.90
11617;DHT22;5864;52.998;9.068;2023-11-19T21:48:20;10.30;99.90
11617;DHT22;5864;52.998;9.068;2023-11-19T21:51:06;10.30;99.90
11617;DHT22;5864;52.998;9.068;2023-11-19T21:53:51;10.40;99.90
11617;DHT22;5864;52.998;9.068;2023-11-19T21:56:37;10.30;99.90
11617;DHT22;5864;52.998;9.068;2023-11-19T21:59:22;10.30;99.90
11617;DHT22;5864;52.998;9.068;2023-11-19T22:02:10;10.40;99.90
11617;DHT22;5864;52.998;9.068;2023-11-19T22:04:56;10.30;99.90
11617;DHT22;5864;52.998;9.068;2023-11-19T22:07:43;10.30;99.90
11617;DHT22;5864;52.998;9.068;2023-11-19T22:10:29;10.40;99.90
11617;DHT22;5864;52.998;9.068;2023-11-19T22:13:15;10.40;99.90
11617;DHT22;5864;52.998;9.068;2023-11-19T22:16:00;10.30;99.90
11617;DHT22;5864;52.998;9.068;2023-11-19T22:18:47;10.30;99.90
11617;DHT22;5864;52.998;9.068;2023-11-19T22:21:34;10.30;99.90
11617;DHT22;5864;52.998;9.068;2023-11-19T22:24:20;10.30;99.90
11617;DHT22;5864;52.998;9.068;2023-11-19T22:27:06;10.30;99.90
11617;DHT22;5864;52.998;9.068;2023-11-19T22:29:52;10.40;99.90
11617;DHT22;5864;52.998;9.068;2023-11-19T22:32:38;10.40;99.90
11617;DHT22;5864;52.998;9.068;2023-11-19T22:35:24;10.40;99.90
11617;DHT22;5864;52.998;9.068;2023-11-19T22:38:10;10.40;99.90
11617;DHT22;5864;52.998;9.068;2023-11-19T22:40:56;10.40;99.90
11617;DHT22;5864;52.998;9.068;2023-11-19T22:43:41;10.40;99.90
11617;DHT22;5864;52.998;9.068;2023-11-19T22:46:27;10.40;99.90
11617;DHT22;5864;52.998;9.068;2023-11-19T22:49:13;10.40;99.90
11617;DHT22;5864;52.998;9.068;2023-11-19T22:52:00;10.40;99.90
11617;DHT22;5864;52.998;9.068;2023-11-19T22:54:45;10.50;99.90
11617;DHT22;5864;52.998;9.068;2023-11-19T22:57:32;10.50;99.90
11617;DHT22;5864;52.998;9.068;2023-11-19T23:00:18;10.50;99.90
11617;DHT22;5864;52.998;9.068;2023-11-19T23:03:12;10.50;99.90
11617;DHT22;5864;52.998;9.068;2023-11-19T23:05:57;10.50;99.90
11617;DHT22;5864;52.998;9.068;2023-11-19T23:08:45;10.60;99.90
11617;DHT22;5864;52.998;9.068;2023-11-19T23:11:31;10.60;99.90
11617;DHT22;5864;52.998;9.068;2023-11-19T23:14:17;10.60;99.90
11617;DHT22;5864;52.998;9.068;2023-11-19T23:17:03;10.60;99.90
11617;DHT22;5864;52.998;9.068;2023-11-19T23:19:49;10.60;99.90
11617;DHT22;5864;52.998;9.068;2023-11-19T23:22:35;10.50;99.90
11617;DHT22;5864;52.998;9.068;2023-11-19T23:25:22;10.80;99.90
11617;DHT22;5864;52.998;9.068;2023-11-19T23:28:09;10.50;99.90
11617;DHT22;5864;52.998;9.068;2023-11-19T23:30:54;10.50;99.90
11617;DHT22;5864;52.998;9.068;2023-11-19T23:33:40;10.50;99.90
11617;DHT22;5864;52.998;9.068;2023-11-19T23:36:25;10.50;99.90
11617;DHT22;5864;52.998;9.068;2023-11-19T23:39:12;10.50;99.90
11617;DHT22;5864;52.998;9.068;2023-11-19T23:42:00;10.50;99.90
11617;DHT22;5864;52.998;9.068;2023-11-19T23:44:45;10.50;99.90
11617;DHT22;5864;52.998;9.068;2023-11-19T23:47:32;10.50;99.90
11617;DHT22;5864;52.998;9.068;2023-11-19T23:50:18;10.50;99.90
11617;DHT22;5864;52.998;9.068;2023-11-19T23:53:04;10.50;99.90
11617;DHT22;5864;52.998;9.068;2023-11-19T23:55:55;10.50;99.90
11617;DHT22;5864;52.998;9.068;2023-11-19T23:58:44;10.50;99.90
